createdAt,value
2023-08-15T00:00:41.873Z,79.34
2023-08-15T00:03:09.931Z,78.47
2023-08-15T00:05:38.728Z,77.61
2023-08-15T00:08:06.208Z,78.57
2023-08-15T00:10:34.002Z,79.16
2023-08-15T00:13:01.484Z,78.73
2023-08-15T00:15:28.938Z,79.03
2023-08-15T00:17:56.903Z,78.21
2023-08-15T00:20:24.346Z,78.03
2023-08-15T00:22:51.882Z,77.91
2023-08-15T00:25:19.904Z,78.79
2023-08-15T00:27:47.404Z,79.20
2023-08-15T00:30:14.926Z,79.20
2023-08-15T00:32:42.824Z,79.67
2023-08-15T00:35:11.730Z,79.86
2023-08-15T00:37:38.938Z,80.86
2023-08-15T00:40:07.846Z,81.64
2023-08-15T00:42:35.433Z,81.42
2023-08-15T00:45:03.702Z,81.95
2023-08-15T00:47:31.599Z,82.17
2023-08-15T00:50:00.131Z,81.56
2023-08-15T00:52:28.112Z,81.99
2023-08-15T00:54:56.233Z,83.91
2023-08-15T00:57:23.859Z,86.02
2023-08-15T00:59:51.661Z,84.10
2023-08-15T01:02:19.977Z,82.79
2023-08-15T01:04:47.505Z,81.82
2023-08-15T01:07:14.938Z,81.83
2023-08-15T01:09:44.220Z,82.31
2023-08-15T01:12:32.756Z,81.98
2023-08-15T01:15:28.594Z,81.48
2023-08-15T01:18:16.022Z,83.32
2023-08-15T01:20:43.856Z,84.07
2023-08-15T01:23:15.567Z,83.02
2023-08-15T01:25:43.842Z,82.56
2023-08-15T01:28:16.010Z,84.71
2023-08-15T01:31:02.361Z,85.44
2023-08-15T01:33:47.686Z,85.89
2023-08-15T01:36:22.689Z,85.37
2023-08-15T01:38:55.983Z,86.07
2023-08-15T01:41:25.958Z,85.87
2023-08-15T01:43:55.818Z,86.06
2023-08-15T01:46:23.390Z,84.73
2023-08-15T01:48:50.826Z,83.99
2023-08-15T01:51:18.559Z,83.90
2023-08-15T01:53:46.106Z,85.59
2023-08-15T01:56:14.454Z,85.14
2023-08-15T01:58:42.280Z,85.08
2023-08-15T02:01:09.614Z,86.04
2023-08-15T02:03:37.310Z,86.71
2023-08-15T02:06:04.748Z,88.19
2023-08-15T02:08:32.005Z,88.94
2023-08-15T02:11:02.272Z,87.72
2023-08-15T02:13:32.121Z,86.96
2023-08-15T02:15:59.557Z,86.23
2023-08-15T02:18:28.771Z,86.17
2023-08-15T02:20:56.772Z,84.79
2023-08-15T02:23:24.136Z,84.62
2023-08-15T02:25:51.619Z,83.90
2023-08-15T02:28:19.462Z,84.19
2023-08-15T02:30:46.774Z,85.54
2023-08-15T02:33:14.049Z,86.17
2023-08-15T02:35:43.136Z,86.96
2023-08-15T02:38:10.370Z,87.24
2023-08-15T02:40:38.568Z,86.36
2023-08-15T02:43:06.205Z,86.98
2023-08-15T02:45:33.621Z,86.52
2023-08-15T02:48:04.686Z,84.08
2023-08-15T02:50:32.984Z,82.64
2023-08-15T02:53:00.510Z,79.65
2023-08-15T02:55:27.982Z,85.45
2023-08-15T02:57:55.811Z,85.80
2023-08-15T03:00:24.199Z,86.19
2023-08-15T03:02:51.773Z,87.72
2023-08-15T03:05:20.353Z,88.06
2023-08-15T03:07:47.985Z,88.70
2023-08-15T03:10:16.961Z,88.27
2023-08-15T03:12:44.890Z,87.26
2023-08-15T03:15:12.948Z,87.27
2023-08-15T03:17:40.699Z,87.50
2023-08-15T03:20:10.609Z,86.14
2023-08-15T03:22:38.267Z,90.92
2023-08-15T03:25:06.775Z,90.33
2023-08-15T03:27:34.653Z,88.12
2023-08-15T03:30:03.932Z,88.96
2023-08-15T03:32:31.752Z,88.85
2023-08-15T03:35:00.150Z,89.68
2023-08-15T03:37:27.868Z,89.48
2023-08-15T03:39:55.303Z,89.22
2023-08-15T03:42:23.374Z,89.58
2023-08-15T03:44:51.083Z,89.26
2023-08-15T03:47:18.629Z,88.68
2023-08-15T03:49:47.410Z,87.69
2023-08-15T03:52:17.711Z,87.16
2023-08-15T03:54:47.022Z,86.92
2023-08-15T03:57:16.929Z,86.90
2023-08-15T03:59:44.676Z,88.04
2023-08-15T04:02:12.872Z,87.38
2023-08-15T04:04:41.822Z,88.30
2023-08-15T04:07:10.068Z,89.69
2023-08-15T04:09:37.934Z,89.35
2023-08-15T04:12:06.123Z,90.93
2023-08-15T04:14:33.687Z,89.77
2023-08-15T04:17:01.356Z,90.33
2023-08-15T04:19:29.247Z,91.16
2023-08-15T04:21:56.835Z,90.43
2023-08-15T04:24:24.608Z,91.32
2023-08-15T04:26:53.104Z,91.18
2023-08-15T04:29:20.848Z,89.96
2023-08-15T04:31:48.382Z,89.52
2023-08-15T04:34:21.086Z,89.94
2023-08-15T04:36:51.127Z,90.57
2023-08-15T04:39:20.814Z,89.42
2023-08-15T04:41:49.171Z,90.10
2023-08-15T04:44:16.730Z,88.63
2023-08-15T04:46:45.108Z,87.04
2023-08-15T04:49:12.965Z,86.88
2023-08-15T04:51:40.462Z,87.27
2023-08-15T04:54:08.378Z,86.15
2023-08-15T04:56:36.697Z,85.66
2023-08-15T04:59:04.297Z,86.61
2023-08-15T05:01:32.521Z,86.01
2023-08-15T05:04:01.125Z,86.92
2023-08-15T05:06:29.502Z,86.44
2023-08-15T05:08:58.313Z,87.43
2023-08-15T05:11:26.119Z,87.67
2023-08-15T05:13:53.834Z,87.71
2023-08-15T05:16:23.031Z,86.30
2023-08-15T05:18:51.495Z,87.18
2023-08-15T05:21:19.612Z,86.54
2023-08-15T05:23:47.683Z,86.50
2023-08-15T05:26:16.886Z,87.18
2023-08-15T05:28:46.944Z,87.60
2023-08-15T05:31:16.235Z,87.67
2023-08-15T05:33:44.248Z,87.80
2023-08-15T05:36:11.931Z,87.95
2023-08-15T05:38:40.359Z,88.72
2023-08-15T05:41:08.340Z,89.95
2023-08-15T05:43:35.906Z,88.72
2023-08-15T05:46:03.912Z,87.83
2023-08-15T05:48:34.361Z,88.34
2023-08-15T05:51:02.127Z,88.87
2023-08-15T05:53:30.321Z,90.51
2023-08-15T05:55:57.872Z,90.26
2023-08-15T05:58:25.394Z,89.56
2023-08-15T06:00:55.207Z,89.17
2023-08-15T06:03:36.232Z,89.50
2023-08-15T06:06:11.454Z,89.54
2023-08-15T06:08:39.807Z,89.83
2023-08-15T06:11:07.834Z,89.33
2023-08-15T06:13:35.398Z,88.92
2023-08-15T06:16:03.867Z,87.70
2023-08-15T06:18:34.618Z,87.67
2023-08-15T06:21:02.421Z,88.07
2023-08-15T06:23:30.603Z,87.96
2023-08-15T06:25:58.354Z,87.64
2023-08-15T06:28:35.332Z,85.58
2023-08-15T06:31:04.052Z,85.29
2023-08-15T06:33:31.764Z,86.15
2023-08-15T06:35:59.512Z,85.46
2023-08-15T06:38:27.453Z,87.02
2023-08-15T06:40:55.088Z,88.83
2023-08-15T06:43:22.689Z,85.05
2023-08-15T06:45:51.045Z,85.73
2023-08-15T06:48:19.130Z,83.01
2023-08-15T06:50:47.841Z,83.57
2023-08-15T06:53:21.904Z,83.80
2023-08-15T06:55:53.487Z,83.49
2023-08-15T06:58:22.227Z,83.98
2023-08-15T07:00:50.053Z,84.83
2023-08-15T07:03:18.497Z,83.42
2023-08-15T07:05:47.038Z,83.66
2023-08-15T07:08:19.038Z,85.25
2023-08-15T07:10:47.105Z,86.01
2023-08-15T07:13:28.028Z,85.49
2023-08-15T07:15:57.035Z,85.24
2023-08-15T07:18:25.699Z,84.65
2023-08-15T07:20:53.534Z,84.54
2023-08-15T07:23:24.320Z,85.28
2023-08-15T07:25:55.337Z,85.32
2023-08-15T07:28:24.490Z,81.03
2023-08-15T07:30:52.118Z,81.53
2023-08-15T07:33:19.778Z,79.78
2023-08-15T07:35:47.851Z,80.87
2023-08-15T07:38:15.710Z,80.51
2023-08-15T07:40:43.653Z,78.75
2023-08-15T07:43:14.577Z,76.48
2023-08-15T07:45:42.529Z,75.59
2023-08-15T07:48:10.383Z,72.34
2023-08-15T07:51:00.646Z,71.48
2023-08-15T07:53:26.793Z,71.05
2023-08-15T07:55:56.015Z,69.62
2023-08-15T07:58:24.684Z,70.18
2023-08-15T08:00:52.365Z,71.67
2023-08-15T08:03:20.373Z,70.90
2023-08-15T08:05:50.388Z,69.61
2023-08-15T08:08:20.885Z,71.03
2023-08-15T08:10:49.031Z,71.38
2023-08-15T08:13:23.420Z,74.29
2023-08-15T08:15:55.505Z,72.08
2023-08-15T08:18:25.720Z,71.89
2023-08-15T08:20:54.201Z,73.64
2023-08-15T08:23:25.569Z,71.29
2023-08-15T08:25:55.691Z,71.06
2023-08-15T08:28:23.218Z,71.83
2023-08-15T08:30:51.072Z,72.37
2023-08-15T08:33:19.489Z,73.59
2023-08-15T08:35:50.422Z,75.19
2023-08-15T08:38:19.419Z,74.81
2023-08-15T08:40:49.046Z,74.94
2023-08-15T08:43:17.093Z,73.89
2023-08-15T08:45:53.028Z,74.60
2023-08-15T08:48:23.057Z,72.52
2023-08-15T08:50:57.346Z,73.12
2023-08-15T08:53:26.560Z,72.87
2023-08-15T08:55:54.348Z,73.67
2023-08-15T08:58:35.750Z,75.29
2023-08-15T09:01:06.512Z,78.21
2023-08-15T09:03:34.380Z,76.55
2023-08-15T09:06:05.328Z,77.56
2023-08-15T09:08:40.350Z,78.38
2023-08-15T09:11:09.638Z,79.10
2023-08-15T09:13:47.691Z,77.11
2023-08-15T09:16:17.909Z,76.04
2023-08-15T09:18:55.596Z,76.80
2023-08-15T09:21:34.463Z,76.16
2023-08-15T09:24:08.258Z,77.48
2023-08-15T09:26:38.898Z,77.66
2023-08-15T09:29:14.137Z,79.23
2023-08-15T09:31:41.666Z,77.60
2023-08-15T09:34:20.109Z,79.01
2023-08-15T09:36:48.273Z,80.73
2023-08-15T09:39:39.737Z,81.02
2023-08-15T09:42:18.060Z,80.60
2023-08-15T09:44:48.762Z,79.73
2023-08-15T09:47:26.110Z,79.25
2023-08-15T09:50:18.113Z,78.14
2023-08-15T09:52:52.570Z,79.30
2023-08-15T09:55:29.077Z,79.07
2023-08-15T09:58:01.286Z,76.85
2023-08-15T10:00:34.875Z,78.87
2023-08-15T10:03:19.935Z,80.87
2023-08-15T10:06:11.554Z,79.23
2023-08-15T10:08:47.403Z,78.81
2023-08-15T10:11:23.001Z,80.40
2023-08-15T10:13:51.806Z,79.71
2023-08-15T10:16:21.758Z,80.42
2023-08-15T10:18:58.264Z,78.14
2023-08-15T10:21:28.261Z,78.52
2023-08-15T10:23:59.661Z,77.24
2023-08-15T10:26:34.749Z,77.18
2023-08-15T10:29:23.819Z,77.82
2023-08-15T10:32:02.162Z,76.50
2023-08-15T10:35:05.889Z,77.36
2023-08-15T10:37:35.245Z,77.11
2023-08-15T10:40:13.718Z,78.06
2023-08-15T10:43:02.358Z,78.27
2023-08-15T10:45:39.493Z,77.29
2023-08-15T10:48:07.939Z,76.28
2023-08-15T10:50:55.637Z,76.99
2023-08-15T10:53:53.977Z,77.58
2023-08-15T10:56:18.005Z,76.71
2023-08-15T10:58:51.180Z,76.56
2023-08-15T11:01:25.548Z,77.55
2023-08-15T11:03:57.324Z,74.68
2023-08-15T11:06:28.350Z,72.92
2023-08-15T11:09:14.034Z,74.00
2023-08-15T11:11:44.296Z,70.75
2023-08-15T11:14:21.224Z,70.63
2023-08-15T11:16:57.571Z,70.11
2023-08-15T11:19:25.667Z,69.53
2023-08-15T11:22:01.629Z,70.37
2023-08-15T11:24:32.820Z,71.25
2023-08-15T11:27:04.491Z,69.97
2023-08-15T11:29:35.556Z,70.54
2023-08-15T11:32:03.429Z,69.80
2023-08-15T11:34:31.291Z,71.86
2023-08-15T11:36:59.240Z,71.72
2023-08-15T11:39:27.933Z,72.23
2023-08-15T11:41:58.213Z,70.77
2023-08-15T11:44:26.245Z,70.84
2023-08-15T11:47:01.459Z,72.05
2023-08-15T11:49:39.395Z,71.79
2023-08-15T11:52:15.814Z,71.87
2023-08-15T11:54:47.558Z,73.57
2023-08-15T11:57:36.063Z,71.73
2023-08-15T12:00:05.441Z,69.45
2023-08-15T12:02:36.338Z,69.19
2023-08-15T12:05:18.573Z,69.73
2023-08-15T12:11:46.628Z,68.34
2023-08-15T12:14:22.505Z,69.52
2023-08-15T12:16:50.364Z,69.07
2023-08-15T12:19:23.136Z,67.31
2023-08-15T12:21:54.778Z,68.54
2023-08-15T12:24:23.560Z,71.00
2023-08-15T12:26:51.570Z,69.04
2023-08-15T12:29:19.726Z,70.13
2023-08-15T12:32:07.632Z,70.57
2023-08-15T12:34:43.146Z,69.27
2023-08-15T12:37:11.308Z,70.25
2023-08-15T12:39:40.571Z,70.17
2023-08-15T12:42:19.710Z,72.42
2023-08-15T12:44:48.801Z,76.27
2023-08-15T12:47:16.322Z,74.22
2023-08-15T12:49:49.849Z,75.16
2023-08-15T12:52:26.970Z,77.26
2023-08-15T12:54:56.545Z,77.35
2023-08-15T12:57:33.701Z,76.65
2023-08-15T13:00:05.010Z,78.81
2023-08-15T13:02:36.756Z,76.78
2023-08-15T13:05:08.783Z,79.21
2023-08-15T13:07:38.174Z,81.67
2023-08-15T13:10:08.159Z,78.68
2023-08-15T13:12:45.957Z,78.99
2023-08-15T13:15:22.250Z,80.24
2023-08-15T13:17:50.002Z,79.23
2023-08-15T13:20:19.020Z,81.18
2023-08-15T13:22:48.814Z,81.52
2023-08-15T13:25:16.561Z,82.87
2023-08-15T13:27:44.406Z,83.45
2023-08-15T13:30:12.138Z,82.98
2023-08-15T13:32:39.712Z,79.73
2023-08-15T13:35:08.074Z,81.91
2023-08-15T13:37:39.820Z,83.45
2023-08-15T13:40:12.633Z,82.34
2023-08-15T13:42:41.481Z,83.24
2023-08-15T13:45:20.477Z,81.77
2023-08-15T13:47:50.191Z,80.93
2023-08-15T13:50:18.934Z,80.80
2023-08-15T13:52:46.455Z,78.96
2023-08-15T13:55:14.870Z,79.01
2023-08-15T13:57:44.941Z,77.69
2023-08-15T14:00:14.699Z,77.77
2023-08-15T14:02:42.726Z,76.78
2023-08-15T14:05:29.287Z,77.47
2023-08-15T14:07:59.835Z,75.83
2023-08-15T14:10:31.294Z,77.04
2023-08-15T14:12:59.806Z,76.44
2023-08-15T14:15:33.627Z,75.81
2023-08-15T14:18:01.901Z,75.28
2023-08-15T14:20:30.234Z,74.67
2023-08-15T14:22:58.675Z,75.02
2023-08-15T14:25:26.880Z,74.42
2023-08-15T14:27:57.769Z,72.12
2023-08-15T14:30:35.336Z,72.84
2023-08-15T14:33:17.007Z,72.15
2023-08-15T14:36:00.774Z,72.64
2023-08-15T14:38:35.044Z,68.95
2023-08-15T14:41:13.820Z,67.35
2023-08-15T14:44:14.251Z,66.85
2023-08-15T14:46:49.888Z,68.19
2023-08-15T14:49:17.828Z,66.76
2023-08-15T14:51:45.428Z,68.54
2023-08-15T14:54:13.885Z,68.75
2023-08-15T14:56:43.035Z,65.07
2023-08-15T14:59:10.592Z,64.68
2023-08-15T15:01:39.888Z,59.65
2023-08-15T15:04:09.790Z,59.68
2023-08-15T15:06:39.050Z,57.04
2023-08-15T15:09:09.648Z,56.39
2023-08-15T15:11:37.613Z,56.81
2023-08-15T15:14:05.266Z,54.69
2023-08-15T15:16:32.900Z,52.97
2023-08-15T15:19:01.332Z,51.98
2023-08-15T15:21:29.170Z,50.60
2023-08-15T15:24:00.705Z,47.69
2023-08-15T15:26:40.738Z,46.40
2023-08-15T15:29:14.583Z,51.46
2023-08-15T15:31:49.730Z,55.78
2023-08-15T15:34:17.766Z,56.78
2023-08-15T15:36:47.378Z,59.54
2023-08-15T15:39:20.697Z,61.72
2023-08-15T15:41:52.829Z,60.59
2023-08-15T15:44:22.477Z,57.84
2023-08-15T15:46:59.187Z,61.00
2023-08-15T15:49:26.758Z,60.42
2023-08-15T15:52:03.333Z,58.21
2023-08-15T15:54:32.700Z,55.76
2023-08-15T15:57:04.176Z,56.18
2023-08-15T15:59:45.506Z,56.31
2023-08-15T16:02:15.503Z,58.23
2023-08-15T16:04:48.829Z,59.80
2023-08-15T16:07:28.653Z,59.73
2023-08-15T16:09:59.392Z,60.99
2023-08-15T16:12:30.673Z,64.90
2023-08-15T16:15:05.685Z,65.89
2023-08-15T16:17:35.033Z,67.42
2023-08-15T16:20:07.585Z,69.48
2023-08-15T16:22:35.258Z,69.48
2023-08-15T16:28:01.095Z,70.22
2023-08-15T16:28:17.882Z,70.80
2023-08-15T16:30:33.607Z,72.82
2023-08-15T16:33:29.185Z,73.92
2023-08-15T16:35:55.071Z,74.88
2023-08-15T16:38:22.526Z,75.44
2023-08-15T16:43:43.611Z,75.96
2023-08-15T16:46:23.077Z,77.86
2023-08-15T16:48:53.598Z,78.40
2023-08-15T16:49:46.704Z,76.01
2023-08-15T16:51:27.252Z,80.72
2023-08-15T16:54:08.150Z,80.36
2023-08-15T16:56:36.313Z,80.25
2023-08-15T16:59:38.929Z,79.73
2023-08-15T17:02:18.103Z,78.98
2023-08-15T17:04:58.055Z,77.10
2023-08-15T17:07:36.251Z,78.26
2023-08-15T17:10:11.857Z,79.42
2023-08-15T17:12:39.363Z,80.35
2023-08-15T17:15:12.265Z,78.91
2023-08-15T17:17:47.207Z,78.00
2023-08-15T17:20:25.853Z,80.62
2023-08-15T17:22:55.102Z,82.64
2023-08-15T17:25:26.684Z,84.06
2023-08-15T17:27:58.897Z,83.32
2023-08-15T17:30:50.444Z,82.32
2023-08-15T17:33:28.179Z,81.76
2023-08-15T17:36:03.746Z,82.21
2023-08-15T17:38:51.640Z,81.24
2023-08-15T17:41:19.761Z,82.65
2023-08-15T17:43:59.390Z,82.47
2023-08-15T17:46:31.445Z,81.87
2023-08-15T17:49:03.359Z,83.47
2023-08-15T17:54:19.111Z,85.41
2023-08-15T17:56:53.302Z,86.05
2023-08-15T17:59:29.399Z,85.28
2023-08-15T18:02:04.225Z,86.76
2023-08-15T18:04:35.326Z,85.13
2023-08-15T18:07:06.955Z,85.52
2023-08-15T18:09:48.942Z,87.79
2023-08-15T18:12:21.327Z,89.39
2023-08-15T18:14:51.571Z,89.13
2023-08-15T18:17:25.853Z,89.72
2023-08-15T18:20:44.550Z,88.27
2023-08-15T18:23:12.257Z,88.14
2023-08-15T18:25:40.378Z,87.50
2023-08-15T18:28:08.022Z,88.47
2023-08-15T18:30:37.925Z,89.85
2023-08-15T18:33:06.069Z,89.96
2023-08-15T18:35:36.143Z,90.29
2023-08-15T18:38:04.862Z,90.74
2023-08-15T18:40:33.854Z,91.00
2023-08-15T18:43:07.166Z,90.53
2023-08-15T18:45:35.216Z,91.07
2023-08-15T18:48:04.017Z,90.99
2023-08-15T18:50:32.176Z,89.86
2023-08-15T18:53:00.287Z,91.40
2023-08-15T18:55:39.625Z,92.73
2023-08-15T18:58:08.616Z,93.30
2023-08-15T19:00:48.608Z,92.17
2023-08-15T19:03:17.136Z,91.84
2023-08-15T19:05:47.898Z,90.70
2023-08-15T19:08:20.263Z,91.14
2023-08-15T19:10:51.130Z,93.41
2023-08-15T19:13:26.210Z,95.51
2023-08-15T19:16:16.272Z,95.67
2023-08-15T19:18:47.530Z,95.17
2023-08-15T19:21:40.177Z,94.82
2023-08-15T19:24:14.780Z,94.65
2023-08-15T19:26:42.693Z,94.15
2023-08-15T19:29:10.641Z,93.66
2023-08-15T19:31:38.492Z,94.73
2023-08-15T19:34:09.884Z,93.74
2023-08-15T19:36:37.592Z,92.72
2023-08-15T19:39:05.322Z,94.71
2023-08-15T19:41:32.735Z,95.13
2023-08-15T19:44:00.497Z,94.37
2023-08-15T19:46:28.161Z,93.69
2023-08-15T19:48:55.592Z,93.96
2023-08-15T19:51:23.625Z,93.67
2023-08-15T19:53:51.484Z,95.77
2023-08-15T19:56:18.935Z,96.54
2023-08-15T19:58:46.691Z,96.75
2023-08-15T20:01:14.206Z,96.19
2023-08-15T20:03:41.960Z,96.75
2023-08-15T20:06:09.459Z,96.44
2023-08-15T20:08:36.982Z,96.48
2023-08-15T20:11:05.621Z,96.26
2023-08-15T20:13:33.078Z,96.86
2023-08-15T20:16:00.498Z,100.00
2023-08-15T20:18:28.369Z,100.00
2023-08-15T20:20:55.871Z,100.00
2023-08-15T20:23:23.540Z,100.00
2023-08-15T20:25:52.900Z,100.00
2023-08-15T20:28:20.405Z,100.00
2023-08-15T20:30:47.834Z,100.00
2023-08-15T20:33:15.927Z,100.00
2023-08-15T20:35:43.454Z,99.86
2023-08-15T20:38:10.831Z,98.49
2023-08-15T20:40:38.835Z,100.00
2023-08-15T20:43:06.264Z,100.00
2023-08-15T20:45:33.667Z,100.00
2023-08-15T20:48:01.573Z,100.00
2023-08-15T20:50:29.112Z,99.58
2023-08-15T20:52:57.728Z,98.96
2023-08-15T20:55:25.635Z,99.07
2023-08-15T20:57:53.426Z,100.00
2023-08-15T21:00:20.930Z,99.29
2023-08-15T21:02:49.197Z,99.43
2023-08-15T21:05:16.758Z,99.14
2023-08-15T21:07:44.221Z,98.46
2023-08-15T21:10:12.062Z,98.45
2023-08-15T21:12:39.482Z,98.23
2023-08-15T21:15:07.685Z,99.75
2023-08-15T21:17:36.357Z,100.00
2023-08-15T21:20:05.055Z,99.55
2023-08-15T21:22:32.965Z,99.06
2023-08-15T21:25:02.060Z,99.98
2023-08-15T21:27:29.331Z,100.00
2023-08-15T21:29:56.725Z,100.00
2023-08-15T21:32:24.489Z,100.00
2023-08-15T21:34:51.934Z,100.00
2023-08-15T21:37:19.438Z,100.00
2023-08-15T21:39:47.277Z,100.00
2023-08-15T21:42:14.809Z,100.00
2023-08-15T21:44:42.228Z,100.00
2023-08-15T21:47:09.985Z,100.00
2023-08-15T21:49:37.419Z,100.00
2023-08-15T21:52:05.221Z,100.00
2023-08-15T21:54:33.132Z,100.00
2023-08-15T21:57:09.592Z,100.00
2023-08-15T21:59:37.448Z,100.00
2023-08-15T22:02:04.850Z,100.00
2023-08-15T22:04:32.583Z,100.00
2023-08-15T22:06:59.956Z,100.00
2023-08-15T22:09:27.432Z,100.00
2023-08-15T22:11:55.183Z,100.00
2023-08-15T22:14:23.000Z,100.00
2023-08-15T22:16:50.463Z,100.00
2023-08-15T22:19:18.245Z,100.00
2023-08-15T22:21:45.573Z,100.00
2023-08-15T22:24:12.975Z,100.00
2023-08-15T22:26:40.754Z,100.00
2023-08-15T22:29:08.144Z,100.00
2023-08-15T22:31:35.603Z,100.00
2023-08-15T22:34:03.291Z,100.00
2023-08-15T22:36:30.914Z,100.00
2023-08-15T22:38:58.150Z,100.00
2023-08-15T22:41:25.795Z,100.00
2023-08-15T22:43:53.064Z,100.00
2023-08-15T22:46:20.635Z,100.00
2023-08-15T22:48:48.646Z,100.00
2023-08-15T22:51:16.078Z,100.00
2023-08-15T22:53:46.007Z,100.00
2023-08-15T22:56:13.755Z,100.00
2023-08-15T22:58:41.406Z,100.00
2023-08-15T23:01:08.787Z,100.00
2023-08-15T23:03:36.466Z,100.00
2023-08-15T23:06:05.079Z,100.00
2023-08-15T23:08:33.379Z,100.00
2023-08-15T23:11:01.124Z,100.00
2023-08-15T23:13:28.562Z,100.00
2023-08-15T23:15:56.173Z,100.00
2023-08-15T23:18:23.913Z,100.00
2023-08-15T23:20:51.634Z,100.00
2023-08-15T23:23:19.048Z,100.00
2023-08-15T23:25:46.800Z,100.00
2023-08-15T23:28:14.149Z,100.00
2023-08-15T23:30:41.512Z,100.00
2023-08-15T23:33:09.390Z,100.00
2023-08-15T23:35:36.730Z,100.00
2023-08-15T23:38:04.008Z,100.00
2023-08-15T23:40:31.713Z,100.00
2023-08-15T23:42:59.090Z,100.00
2023-08-15T23:45:27.197Z,100.00
2023-08-15T23:47:54.926Z,100.00
2023-08-15T23:50:22.244Z,100.00
2023-08-15T23:52:49.800Z,100.00
2023-08-15T23:55:17.578Z,100.00
2023-08-15T23:57:45.057Z,100.00
